sensor_id;sensor_type;location;lat;lon;timestamp;pressure;altitude;pressure_sealevel;temperature;humidity
50057;BME280;36875;49.468;11.200;2023-04-22T00:02:10;97448.81;;;19.93;42.65
50057;BME280;36875;49.468;11.200;2023-04-22T00:04:37;97448.03;;;19.93;42.78
50057;BME280;36875;49.468;11.200;2023-04-22T00:07:02;97447.56;;;19.91;42.85
50057;BME280;36875;49.468;11.200;2023-04-22T00:09:28;97443.34;;;19.93;42.73
50057;BME280;36875;49.468;11.200;2023-04-22T00:11:54;97433.91;;;19.91;42.81
50057;BME280;36875;49.468;11.200;2023-04-22T00:14:19;97433.91;;;19.91;42.84
50057;BME280;36875;49.468;11.200;2023-04-22T00:16:45;97428.28;;;19.87;42.93
50057;BME280;36875;49.468;11.200;2023-04-22T00:19:12;97439.66;;;19.89;42.85
50057;BME280;36875;49.468;11.200;2023-04-22T00:21:37;97432.28;;;19.90;43.17
50057;BME280;36875;49.468;11.200;2023-04-22T00:24:03;97426.81;;;19.90;42.70
50057;BME280;36875;49.468;11.200;2023-04-22T00:26:28;97432.28;;;19.90;42.91
50057;BME280;36875;49.468;11.200;2023-04-22T00:28:54;97431.78;;;19.88;43.02
50057;BME280;36875;49.468;11.200;2023-04-22T00:31:20;97433.72;;;19.87;42.69
50057;BME280;36875;49.468;11.200;2023-04-22T00:33:45;97425.19;;;19.89;42.86
50057;BME280;36875;49.468;11.200;2023-04-22T00:36:12;97428.59;;;19.86;43.06
50057;BME280;36875;49.468;11.200;2023-04-22T00:38:38;97427.44;;;19.87;42.62
50057;BME280;36875;49.468;11.200;2023-04-22T00:41:04;97426.50;;;19.82;42.86
50057;BME280;36875;49.468;11.200;2023-04-22T00:43:29;97431.31;;;19.86;42.83
50057;BME280;36875;49.468;11.200;2023-04-22T00:45:56;97427.44;;;19.87;42.77
50057;BME280;36875;49.468;11.200;2023-04-22T00:48:24;97426.66;;;19.86;42.95
50057;BME280;36875;49.468;11.200;2023-04-22T00:50:50;97427.44;;;19.87;43.12
50057;BME280;36875;49.468;11.200;2023-04-22T00:53:17;97420.41;;;19.86;42.93
50057;BME280;36875;49.468;11.200;2023-04-22T00:55:42;97421.03;;;19.82;42.75
50057;BME280;36875;49.468;11.200;2023-04-22T00:58:08;97424.25;;;19.84;43.00
50057;BME280;36875;49.468;11.200;2023-04-22T01:00:34;97424.25;;;19.84;43.06
50057;BME280;36875;49.468;11.200;2023-04-22T01:03:01;97422.66;;;19.83;43.03
50057;BME280;36875;49.468;11.200;2023-04-22T01:05:28;97429.22;;;19.82;43.07
50057;BME280;36875;49.468;11.200;2023-04-22T01:07:55;97430.38;;;19.81;42.66
50057;BME280;36875;49.468;11.200;2023-04-22T01:10:22;97433.56;;;19.83;42.91
50057;BME280;36875;49.468;11.200;2023-04-22T01:12:48;97433.56;;;19.83;42.67
50057;BME280;36875;49.468;11.200;2023-04-22T01:15:13;97431.47;;;19.80;42.40
50057;BME280;36875;49.468;11.200;2023-04-22T01:17:39;97431.94;;;19.82;42.39
50057;BME280;36875;49.468;11.200;2023-04-22T01:20:05;97435.00;;;19.81;42.55
50057;BME280;36875;49.468;11.200;2023-04-22T01:22:35;97430.38;;;19.81;42.72
50057;BME280;36875;49.468;11.200;2023-04-22T01:25:03;97432.28;;;19.81;42.80
50057;BME280;36875;49.468;11.200;2023-04-22T01:27:28;97434.19;;;19.80;42.71
50057;BME280;36875;49.468;11.200;2023-04-22T01:29:54;97427.94;;;19.80;42.44
50057;BME280;36875;49.468;11.200;2023-04-22T01:32:20;97427.94;;;19.80;42.46
50057;BME280;36875;49.468;11.200;2023-04-22T01:34:46;97427.13;;;19.79;42.48
50057;BME280;36875;49.468;11.200;2023-04-22T01:37:11;97428.25;;;19.78;42.85
50057;BME280;36875;49.468;11.200;2023-04-22T01:39:37;97434.19;;;19.80;42.42
50057;BME280;36875;49.468;11.200;2023-04-22T01:42:04;97434.03;;;19.77;42.61
50057;BME280;36875;49.468;11.200;2023-04-22T01:44:30;97428.25;;;19.78;42.33
50057;BME280;36875;49.468;11.200;2023-04-22T01:46:56;97423.91;;;19.77;42.50
50057;BME280;36875;49.468;11.200;2023-04-22T01:49:21;97430.19;;;19.78;42.52
50057;BME280;36875;49.468;11.200;2023-04-22T01:51:46;97428.25;;;19.78;42.56
50057;BME280;36875;49.468;11.200;2023-04-22T01:54:12;97428.41;;;19.73;42.31
50057;BME280;36875;49.468;11.200;2023-04-22T01:56:38;97431.31;;;19.77;42.55
50057;BME280;36875;49.468;11.200;2023-04-22T01:59:06;97433.25;;;19.76;42.46
50057;BME280;36875;49.468;11.200;2023-04-22T02:01:31;97429.38;;;19.77;42.30
50057;BME280;36875;49.468;11.200;2023-04-22T02:03:57;97441.44;;;19.76;42.52
50057;BME280;36875;49.468;11.200;2023-04-22T02:06:22;97436.28;;;19.75;42.26
50057;BME280;36875;49.468;11.200;2023-04-22T02:08:48;97447.69;;;19.77;42.08
50057;BME280;36875;49.468;11.200;2023-04-22T02:11:13;97438.72;;;19.76;42.30
50057;BME280;36875;49.468;11.200;2023-04-22T02:13:40;97436.28;;;19.75;42.45
50057;BME280;36875;49.468;11.200;2023-04-22T02:16:07;97439.34;;;19.73;42.45
50057;BME280;36875;49.468;11.200;2023-04-22T02:18:32;97439.34;;;19.73;42.58
50057;BME280;36875;49.468;11.200;2023-04-22T02:20:58;97433.88;;;19.73;42.50
50057;BME280;36875;49.468;11.200;2023-04-22T02:23:24;97427.44;;;19.69;42.56
50057;BME280;36875;49.468;11.200;2023-04-22T02:25:51;97433.88;;;19.73;42.22
50057;BME280;36875;49.468;11.200;2023-04-22T02:28:16;97433.09;;;19.73;42.59
50057;BME280;36875;49.468;11.200;2023-04-22T02:30:44;97434.16;;;19.72;42.41
50057;BME280;36875;49.468;11.200;2023-04-22T02:33:11;97430.63;;;19.71;42.30
50057;BME280;36875;49.468;11.200;2023-04-22T02:35:37;97435.00;;;19.72;42.64
50057;BME280;36875;49.468;11.200;2023-04-22T02:38:03;97437.22;;;19.70;42.35
50057;BME280;36875;49.468;11.200;2023-04-22T02:40:28;97438.81;;;19.71;42.30
50057;BME280;36875;49.468;11.200;2023-04-22T02:42:53;97438.81;;;19.71;42.48
50057;BME280;36875;49.468;11.200;2023-04-22T02:45:19;97439.94;;;19.70;42.60
50057;BME280;36875;49.468;11.200;2023-04-22T02:47:45;97439.94;;;19.70;42.39
50057;BME280;36875;49.468;11.200;2023-04-22T02:50:12;97443.81;;;19.69;42.22
50057;BME280;36875;49.468;11.200;2023-04-22T02:52:38;97449.28;;;19.69;42.64
50057;BME280;36875;49.468;11.200;2023-04-22T02:55:04;97447.66;;;19.68;42.47
50057;BME280;36875;49.468;11.200;2023-04-22T02:57:29;97449.59;;;19.68;42.68
50057;BME280;36875;49.468;11.200;2023-04-22T02:59:55;97447.16;;;19.66;42.37
50057;BME280;36875;49.468;11.200;2023-04-22T03:02:21;97451.53;;;19.67;42.63
50057;BME280;36875;49.468;11.200;2023-04-22T03:04:47;97449.59;;;19.68;42.26
50057;BME280;36875;49.468;11.200;2023-04-22T03:07:13;97440.44;;;19.63;42.52
50057;BME280;36875;49.468;11.200;2023-04-22T03:09:39;97446.06;;;19.67;42.54
50057;BME280;36875;49.468;11.200;2023-04-22T03:12:05;97451.03;;;19.65;42.30
50057;BME280;36875;49.468;11.200;2023-04-22T03:14:30;97451.84;;;19.65;42.43
50057;BME280;36875;49.468;11.200;2023-04-22T03:16:55;97455.34;;;19.66;42.09
50057;BME280;36875;49.468;11.200;2023-04-22T03:19:21;97449.09;;;19.65;42.46
50057;BME280;36875;49.468;11.200;2023-04-22T03:21:46;97445.59;;;19.65;42.48
50057;BME280;36875;49.468;11.200;2023-04-22T03:24:13;97452.63;;;19.66;42.39
50057;BME280;36875;49.468;11.200;2023-04-22T03:26:39;97448.31;;;19.65;42.41
50057;BME280;36875;49.468;11.200;2023-04-22T03:29:06;97450.22;;;19.64;42.38
50057;BME280;36875;49.468;11.200;2023-04-22T03:31:31;97442.84;;;19.65;42.58
50057;BME280;36875;49.468;11.200;2023-04-22T03:33:57;97441.22;;;19.64;42.50
50057;BME280;36875;49.468;11.200;2023-04-22T03:36:22;97440.44;;;19.63;42.13
50057;BME280;36875;49.468;11.200;2023-04-22T03:38:48;97443.47;;;19.62;42.27
50057;BME280;36875;49.468;11.200;2023-04-22T03:41:15;97444.59;;;19.61;42.26
50057;BME280;36875;49.468;11.200;2023-04-22T03:43:41;97448.63;;;19.63;42.38
50057;BME280;36875;49.468;11.200;2023-04-22T03:46:06;97445.09;;;19.63;42.45
50057;BME280;36875;49.468;11.200;2023-04-22T03:48:32;97444.28;;;19.62;42.34
50057;BME280;36875;49.468;11.200;2023-04-22T03:51:00;97440.44;;;19.63;42.08
50057;BME280;36875;49.468;11.200;2023-04-22T03:53:26;97442.69;;;19.61;42.08
50057;BME280;36875;49.468;11.200;2023-04-22T03:55:51;97451.34;;;19.63;42.18
50057;BME280;36875;49.468;11.200;2023-04-22T03:58:18;97443.47;;;19.62;42.10
50057;BME280;36875;49.468;11.200;2023-04-22T04:00:44;97449.72;;;19.62;42.03
50057;BME280;36875;49.468;11.200;2023-04-22T04:03:09;97445.09;;;19.63;42.02
50057;BME280;36875;49.468;11.200;2023-04-22T04:05:35;97443.78;;;19.60;42.33
50057;BME280;36875;49.468;11.200;2023-04-22T04:08:00;97448.94;;;19.62;41.98
50057;BME280;36875;49.468;11.200;2023-04-22T04:10:26;97447.00;;;19.62;42.09
50057;BME280;36875;49.468;11.200;2023-04-22T04:12:51;97442.69;;;19.61;41.92
50057;BME280;36875;49.468;11.200;2023-04-22T04:15:18;97436.75;;;19.59;42.02
50057;BME280;36875;49.468;11.200;2023-04-22T04:17:45;97444.94;;;19.59;42.15
50057;BME280;36875;49.468;11.200;2023-04-22T04:20:12;97441.53;;;19.62;41.89
50057;BME280;36875;49.468;11.200;2023-04-22T04:22:38;97441.06;;;19.60;41.85
50057;BME280;36875;49.468;11.200;2023-04-22T04:25:04;97437.53;;;19.60;42.19
50057;BME280;36875;49.468;11.200;2023-04-22T04:27:31;97439.13;;;19.61;41.91
50057;BME280;36875;49.468;11.200;2023-04-22T04:29:56;97443.00;;;19.60;42.09
50057;BME280;36875;49.468;11.200;2023-04-22T04:32:23;97437.53;;;19.60;42.11
50057;BME280;36875;49.468;11.200;2023-04-22T04:34:49;97439.78;;;19.58;42.24
50057;BME280;36875;49.468;11.200;2023-04-22T04:37:15;97441.22;;;19.55;42.20
50057;BME280;36875;49.468;11.200;2023-04-22T04:39:41;97438.00;;;19.53;42.35
50057;BME280;36875;49.468;11.200;2023-04-22T04:42:07;97435.44;;;19.48;42.31
50057;BME280;36875;49.468;11.200;2023-04-22T04:44:33;97438.50;;;19.47;42.41
50057;BME280;36875;49.468;11.200;2023-04-22T04:46:59;97439.59;;;19.45;42.30
50057;BME280;36875;49.468;11.200;2023-04-22T04:49:26;97440.72;;;19.44;42.53
50057;BME280;36875;49.468;11.200;2023-04-22T04:51:54;97439.13;;;19.43;42.52
50057;BME280;36875;49.468;11.200;2023-04-22T04:54:20;97433.97;;;19.42;42.48
50057;BME280;36875;49.468;11.200;2023-04-22T04:56:45;97445.69;;;19.42;42.48
50057;BME280;36875;49.468;11.200;2023-04-22T04:59:11;97446.84;;;19.41;42.81
50057;BME280;36875;49.468;11.200;2023-04-22T05:01:38;97444.09;;;19.41;42.69
50057;BME280;36875;49.468;11.200;2023-04-22T05:04:03;97453.09;;;19.42;42.94
50057;BME280;36875;49.468;11.200;2023-04-22T05:06:30;97448.75;;;19.41;42.86
50057;BME280;36875;49.468;11.200;2023-04-22T05:08:57;97451.50;;;19.41;42.62
50057;BME280;36875;49.468;11.200;2023-04-22T05:11:23;97447.94;;;19.40;42.99
50057;BME280;36875;49.468;11.200;2023-04-22T05:13:48;97446.34;;;19.39;42.63
50057;BME280;36875;49.468;11.200;2023-04-22T05:16:14;97450.19;;;19.38;42.74
50057;BME280;36875;49.468;11.200;2023-04-22T05:18:40;97452.59;;;19.40;43.07
50057;BME280;36875;49.468;11.200;2023-04-22T05:21:05;97453.72;;;19.39;42.85
50057;BME280;36875;49.468;11.200;2023-04-22T05:23:32;97460.00;;;19.39;42.73
50057;BME280;36875;49.468;11.200;2023-04-22T05:25:57;97459.50;;;19.37;42.76
50057;BME280;36875;49.468;11.200;2023-04-22T05:28:23;97454.84;;;19.38;42.95
50057;BME280;36875;49.468;11.200;2023-04-22T05:30:49;97459.50;;;19.37;42.97
50057;BME280;36875;49.468;11.200;2023-04-22T05:33:14;97464.97;;;19.37;42.64
50057;BME280;36875;49.468;11.200;2023-04-22T05:35:40;97461.41;;;19.37;43.02
50057;BME280;36875;49.468;11.200;2023-04-22T05:38:06;97452.44;;;19.36;42.88
50057;BME280;36875;49.468;11.200;2023-04-22T05:40:33;97451.63;;;19.36;43.09
50057;BME280;36875;49.468;11.200;2023-04-22T05:42:58;97462.56;;;19.36;43.08
50057;BME280;36875;49.468;11.200;2023-04-22T05:45:24;97460.13;;;19.34;42.66
50057;BME280;36875;49.468;11.200;2023-04-22T05:47:49;97471.06;;;19.34;42.70
50057;BME280;36875;49.468;11.200;2023-04-22T05:50:15;97464.78;;;19.34;43.01
50057;BME280;36875;49.468;11.200;2023-04-22T05:52:40;97469.44;;;19.33;42.75
50057;BME280;36875;49.468;11.200;2023-04-22T05:55:07;97468.63;;;19.33;42.59
50057;BME280;36875;49.468;11.200;2023-04-22T05:57:33;97463.19;;;19.33;42.95
50057;BME280;36875;49.468;11.200;2023-04-22T05:59:59;97465.59;;;19.34;43.01
50057;BME280;36875;49.468;11.200;2023-04-22T06:02:25;97465.59;;;19.34;42.92
50057;BME280;36875;49.468;11.200;2023-04-22T06:04:51;97468.00;;;19.36;42.82
50057;BME280;36875;49.468;11.200;2023-04-22T06:07:16;97467.19;;;19.35;43.28
50057;BME280;36875;49.468;11.200;2023-04-22T06:09:42;97474.25;;;19.36;43.15
50057;BME280;36875;49.468;11.200;2023-04-22T06:12:07;97470.72;;;19.36;43.07
50057;BME280;36875;49.468;11.200;2023-04-22T06:14:34;97479.41;;;19.38;43.11
50057;BME280;36875;49.468;11.200;2023-04-22T06:16:59;97475.88;;;19.37;43.21
50057;BME280;36875;49.468;11.200;2023-04-22T06:19:25;97477.47;;;19.38;43.62
50057;BME280;36875;49.468;11.200;2023-04-22T06:21:51;97475.53;;;19.39;43.23
50057;BME280;36875;49.468;11.200;2023-04-22T06:24:17;97472.81;;;19.39;43.65
50057;BME280;36875;49.468;11.200;2023-04-22T06:26:43;97470.91;;;19.39;43.49
50057;BME280;36875;49.468;11.200;2023-04-22T06:29:08;97480.69;;;19.40;43.46
50057;BME280;36875;49.468;11.200;2023-04-22T06:31:35;97475.22;;;19.40;43.71
50057;BME280;36875;49.468;11.200;2023-04-22T06:34:01;97467.34;;;19.39;43.78
50057;BME280;36875;49.468;11.200;2023-04-22T06:36:26;97467.88;;;19.41;43.68
50057;BME280;36875;49.468;11.200;2023-04-22T06:38:52;97461.41;;;19.37;43.77
50057;BME280;36875;49.468;11.200;2023-04-22T06:41:18;97467.03;;;19.40;43.86
50057;BME280;36875;49.468;11.200;2023-04-22T06:43:43;97476.84;;;19.41;43.52
50057;BME280;36875;49.468;11.200;2023-04-22T06:46:09;97479.88;;;19.40;43.50
50057;BME280;36875;49.468;11.200;2023-04-22T06:48:36;97477.00;;;19.36;44.02
50057;BME280;36875;49.468;11.200;2023-04-22T06:51:01;97470.09;;;19.39;43.67
50057;BME280;36875;49.468;11.200;2023-04-22T06:53:27;97471.38;;;19.41;43.78
50057;BME280;36875;49.468;11.200;2023-04-22T06:55:52;97474.59;;;19.43;43.82
50057;BME280;36875;49.468;11.200;2023-04-22T06:58:18;97470.59;;;19.41;44.03
50057;BME280;36875;49.468;11.200;2023-04-22T07:00:44;97468.66;;;19.41;43.89
50057;BME280;36875;49.468;11.200;2023-04-22T07:03:10;97461.59;;;19.40;43.85
50057;BME280;36875;49.468;11.200;2023-04-22T07:05:37;97464.78;;;19.42;44.09
50057;BME280;36875;49.468;11.200;2023-04-22T07:08:02;97462.06;;;19.42;43.70
50057;BME280;36875;49.468;11.200;2023-04-22T07:10:28;97462.06;;;19.42;43.94
50057;BME280;36875;49.468;11.200;2023-04-22T07:12:53;97461.75;;;19.44;44.53
50057;BME280;36875;49.468;11.200;2023-04-22T07:15:19;97452.78;;;19.43;44.44
50057;BME280;36875;49.468;11.200;2023-04-22T07:17:45;97454.34;;;19.44;44.90
50057;BME280;36875;49.468;11.200;2023-04-22T07:20:10;97450.97;;;19.39;44.24
50057;BME280;36875;49.468;11.200;2023-04-22T07:22:37;97448.59;;;19.37;44.18
50057;BME280;36875;49.468;11.200;2023-04-22T07:25:03;97443.59;;;19.31;44.26
50057;BME280;36875;49.468;11.200;2023-04-22T07:27:29;97443.75;;;19.34;43.90
50057;BME280;36875;49.468;11.200;2023-04-22T07:29:54;97435.56;;;19.34;43.78
50057;BME280;36875;49.468;11.200;2023-04-22T07:32:20;97439.41;;;19.33;43.70
50057;BME280;36875;49.468;11.200;2023-04-22T07:34:45;97447.59;;;19.33;43.39
50057;BME280;36875;49.468;11.200;2023-04-22T07:37:11;97443.75;;;19.34;43.38
50057;BME280;36875;49.468;11.200;2023-04-22T07:39:39;97444.88;;;19.33;43.37
50057;BME280;36875;49.468;11.200;2023-04-22T07:42:04;97442.97;;;19.34;43.46
50057;BME280;36875;49.468;11.200;2023-04-22T07:44:31;97444.88;;;19.33;43.50
50057;BME280;36875;49.468;11.200;2023-04-22T07:46:57;97446.00;;;19.32;43.36
50057;BME280;36875;49.468;11.200;2023-04-22T07:49:23;97447.13;;;19.31;43.01
50057;BME280;36875;49.468;11.200;2023-04-22T07:51:50;97450.63;;;19.32;43.20
50057;BME280;36875;49.468;11.200;2023-04-22T07:54:15;97426.88;;;19.23;43.30
50057;BME280;36875;49.468;11.200;2023-04-22T07:56:42;97445.53;;;19.30;43.05
50057;BME280;36875;49.468;11.200;2023-04-22T07:59:08;97441.19;;;19.29;42.90
50057;BME280;36875;49.468;11.200;2023-04-22T08:01:33;97442.31;;;19.28;42.56
50057;BME280;36875;49.468;11.200;2023-04-22T08:03:58;97442.31;;;19.28;42.51
50057;BME280;36875;49.468;11.200;2023-04-22T08:06:24;97440.38;;;19.29;42.08
50057;BME280;36875;49.468;11.200;2023-04-22T08:08:50;97443.91;;;19.29;42.16
50057;BME280;36875;49.468;11.200;2023-04-22T08:11:16;97448.88;;;19.27;42.02
50057;BME280;36875;49.468;11.200;2023-04-22T08:13:43;97450.50;;;19.28;41.98
50057;BME280;36875;49.468;11.200;2023-04-22T08:16:10;97455.13;;;19.27;42.06
50057;BME280;36875;49.468;11.200;2023-04-22T08:18:35;97445.66;;;19.25;41.57
50057;BME280;36875;49.468;11.200;2023-04-22T08:21:01;97448.09;;;19.26;41.47
50057;BME280;36875;49.468;11.200;2023-04-22T08:23:27;97443.44;;;19.27;41.47
50057;BME280;36875;49.468;11.200;2023-04-22T08:25:52;97437.19;;;19.26;41.65
50057;BME280;36875;49.468;11.200;2023-04-22T08:28:18;97433.13;;;19.24;41.46
50057;BME280;36875;49.468;11.200;2023-04-22T08:30:45;97441.81;;;19.26;41.69
50057;BME280;36875;49.468;11.200;2023-04-22T08:33:10;97434.75;;;19.25;41.26
50057;BME280;36875;49.468;11.200;2023-04-22T08:35:36;97441.00;;;19.25;41.29
50057;BME280;36875;49.468;11.200;2023-04-22T08:38:02;97437.47;;;19.25;41.29
50057;BME280;36875;49.468;11.200;2023-04-22T08:40:27;97443.25;;;19.23;41.28
50057;BME280;36875;49.468;11.200;2023-04-22T08:42:53;97435.56;;;19.25;41.47
50057;BME280;36875;49.468;11.200;2023-04-22T08:45:20;97432.03;;;19.25;41.41
50057;BME280;36875;49.468;11.200;2023-04-22T08:47:48;97434.75;;;19.25;41.37
50057;BME280;36875;49.468;11.200;2023-04-22T08:50:14;97428.34;;;19.21;40.91
50057;BME280;36875;49.468;11.200;2023-04-22T08:52:41;97435.25;;;19.27;40.83
50057;BME280;36875;49.468;11.200;2023-04-22T08:55:07;97429.47;;;19.29;40.62
50057;BME280;36875;49.468;11.200;2023-04-22T08:57:34;97426.44;;;19.30;40.75
50057;BME280;36875;49.468;11.200;2023-04-22T09:00:01;97426.44;;;19.30;40.81
50057;BME280;36875;49.468;11.200;2023-04-22T09:02:28;97433.16;;;19.33;41.11
50057;BME280;36875;49.468;11.200;2023-04-22T09:04:59;97421.94;;;19.34;40.91
50057;BME280;36875;49.468;11.200;2023-04-22T09:07:26;97424.66;;;19.34;41.23
50057;BME280;36875;49.468;11.200;2023-04-22T09:09:53;97403.47;;;19.31;41.05
50057;BME280;36875;49.468;11.200;2023-04-22T09:12:19;97414.53;;;19.35;41.41
50057;BME280;36875;49.468;11.200;2023-04-22T09:14:45;97404.44;;;19.35;41.45
50057;BME280;36875;49.468;11.200;2023-04-22T09:17:14;97415.03;;;19.37;41.45
50057;BME280;36875;49.468;11.200;2023-04-22T09:19:39;97415.84;;;19.37;41.73
50057;BME280;36875;49.468;11.200;2023-04-22T09:22:08;97399.47;;;19.37;41.64
50057;BME280;36875;49.468;11.200;2023-04-22T09:24:34;97396.25;;;19.35;41.65
50057;BME280;36875;49.468;11.200;2023-04-22T09:27:01;97401.06;;;19.38;41.84
50057;BME280;36875;49.468;11.200;2023-04-22T09:29:29;97404.59;;;19.39;41.72
50057;BME280;36875;49.468;11.200;2023-04-22T09:31:55;97391.44;;;19.32;41.83
50057;BME280;36875;49.468;11.200;2023-04-22T09:34:21;97386.00;;;19.41;41.94
50057;BME280;36875;49.468;11.200;2023-04-22T09:36:49;97389.53;;;19.41;42.04
50057;BME280;36875;49.468;11.200;2023-04-22T09:39:17;97391.13;;;19.42;42.03
50057;BME280;36875;49.468;11.200;2023-04-22T09:41:42;97397.22;;;19.39;42.09
50057;BME280;36875;49.468;11.200;2023-04-22T09:44:10;97388.06;;;19.44;42.27
50057;BME280;36875;49.468;11.200;2023-04-22T09:46:40;97385.19;;;19.40;42.15
50057;BME280;36875;49.468;11.200;2023-04-22T09:49:06;97390.94;;;19.39;42.18
50057;BME280;36875;49.468;11.200;2023-04-22T09:51:32;97389.38;;;19.38;42.31
50057;BME280;36875;49.468;11.200;2023-04-22T09:54:00;97392.88;;;19.38;42.08
50057;BME280;36875;49.468;11.200;2023-04-22T09:56:47;97389.38;;;19.38;42.13
50057;BME280;36875;49.468;11.200;2023-04-22T09:59:16;97392.41;;;19.36;42.29
50057;BME280;36875;49.468;11.200;2023-04-22T10:01:43;97381.81;;;19.35;42.11
50057;BME280;36875;49.468;11.200;2023-04-22T10:04:09;97369.63;;;19.32;41.84
50057;BME280;36875;49.468;11.200;2023-04-22T10:06:36;97379.88;;;19.35;41.53
50057;BME280;36875;49.468;11.200;2023-04-22T10:09:02;97366.22;;;19.35;41.52
50057;BME280;36875;49.468;11.200;2023-04-22T10:11:29;97378.44;;;19.38;41.83
50057;BME280;36875;49.468;11.200;2023-04-22T10:13:57;97364.50;;;19.39;41.41
50057;BME280;36875;49.468;11.200;2023-04-22T10:16:23;97371.84;;;19.39;41.33
50057;BME280;36875;49.468;11.200;2023-04-22T10:18:50;97367.38;;;19.34;41.31
50057;BME280;36875;49.468;11.200;2023-04-22T10:21:16;97368.66;;;19.37;41.58
50057;BME280;36875;49.468;11.200;2023-04-22T10:23:45;97372.38;;;19.41;41.65
50057;BME280;36875;49.468;11.200;2023-04-22T10:26:11;97361.56;;;19.44;41.43
50057;BME280;36875;49.468;11.200;2023-04-22T10:28:41;97370.44;;;19.41;41.76
50057;BME280;36875;49.468;11.200;2023-04-22T10:31:13;97369.75;;;19.44;41.60
50057;BME280;36875;49.468;11.200;2023-04-22T10:33:44;97369.44;;;19.46;41.73
50057;BME280;36875;49.468;11.200;2023-04-22T10:36:15;97364.00;;;19.46;41.71
50057;BME280;36875;49.468;11.200;2023-04-22T10:39:13;97357.91;;;19.49;41.39
50057;BME280;36875;49.468;11.200;2023-04-22T10:41:39;97358.69;;;19.50;41.47
50057;BME280;36875;49.468;11.200;2023-04-22T10:44:05;97345.53;;;19.52;41.51
50057;BME280;36875;49.468;11.200;2023-04-22T10:47:00;97350.34;;;19.55;41.45
50057;BME280;36875;49.468;11.200;2023-04-22T10:49:29;97344.91;;;19.55;41.68
50057;BME280;36875;49.468;11.200;2023-04-22T10:51:55;97336.06;;;19.58;41.56
50057;BME280;36875;49.468;11.200;2023-04-22T10:54:58;97332.53;;;19.57;41.81
50057;BME280;36875;49.468;11.200;2023-04-22T10:57:36;97337.66;;;19.59;41.85
50057;BME280;36875;49.468;11.200;2023-04-22T11:00:17;97334.94;;;19.59;42.03
50057;BME280;36875;49.468;11.200;2023-04-22T11:02:45;97332.19;;;19.59;42.13
50057;BME280;36875;49.468;11.200;2023-04-22T11:05:18;97331.09;;;19.60;42.02
50057;BME280;36875;49.468;11.200;2023-04-22T11:07:46;97328.69;;;19.58;42.27
50057;BME280;36875;49.468;11.200;2023-04-22T11:10:29;97327.06;;;19.57;42.17
50057;BME280;36875;49.468;11.200;2023-04-22T11:12:56;97320.34;;;19.55;42.30
50057;BME280;36875;49.468;11.200;2023-04-22T11:15:21;97334.78;;;19.55;42.28
50057;BME280;36875;49.468;11.200;2023-04-22T11:17:50;97328.53;;;19.55;42.25
50057;BME280;36875;49.468;11.200;2023-04-22T11:20:16;97320.34;;;19.55;42.41
50057;BME280;36875;49.468;11.200;2023-04-22T11:22:47;97319.84;;;19.53;41.94
50057;BME280;36875;49.468;11.200;2023-04-22T11:25:13;97324.53;;;19.52;41.93
50057;BME280;36875;49.468;11.200;2023-04-22T11:27:40;97321.78;;;19.52;42.08
50057;BME280;36875;49.468;11.200;2023-04-22T11:30:09;97320.34;;;19.55;42.18
50057;BME280;36875;49.468;11.200;2023-04-22T11:32:37;97330.13;;;19.56;41.86
50057;BME280;36875;49.468;11.200;2023-04-22T11:35:06;97322.44;;;19.58;42.04
50057;BME280;36875;49.468;11.200;2023-04-22T11:37:38;97318.56;;;19.59;42.09
50057;BME280;36875;49.468;11.200;2023-04-22T11:40:05;97320.97;;;19.60;42.05
50057;BME280;36875;49.468;11.200;2023-04-22T11:42:31;97316.66;;;19.59;42.22
50057;BME280;36875;49.468;11.200;2023-04-22T11:44:57;97308.94;;;19.61;41.88
50057;BME280;36875;49.468;11.200;2023-04-22T11:47:22;97299.44;;;19.59;42.02
50057;BME280;36875;49.468;11.200;2023-04-22T11:49:54;97303.97;;;19.63;42.30
50057;BME280;36875;49.468;11.200;2023-04-22T11:52:22;97305.38;;;19.61;42.22
50057;BME280;36875;49.468;11.200;2023-04-22T11:54:47;97308.63;;;19.63;42.44
50057;BME280;36875;49.468;11.200;2023-04-22T11:57:16;97300.44;;;19.63;42.22
50057;BME280;36875;49.468;11.200;2023-04-22T11:59:42;97303.97;;;19.63;42.58
50057;BME280;36875;49.468;11.200;2023-04-22T12:02:08;97295.28;;;19.61;42.67
50057;BME280;36875;49.468;11.200;2023-04-22T12:04:35;97296.09;;;19.62;42.40
50057;BME280;36875;49.468;11.200;2023-04-22T12:07:02;97289.53;;;19.54;42.42
50057;BME280;36875;49.468;11.200;2023-04-22T12:09:29;97290.31;;;19.63;42.50
50057;BME280;36875;49.468;11.200;2023-04-22T12:11:55;97290.94;;;19.60;42.21
50057;BME280;36875;49.468;11.200;2023-04-22T12:14:26;97289.00;;;19.61;42.63
50057;BME280;36875;49.468;11.200;2023-04-22T12:16:55;97286.78;;;19.63;42.67
50057;BME280;36875;49.468;11.200;2023-04-22T12:19:24;97290.63;;;19.62;42.37
50057;BME280;36875;49.468;11.200;2023-04-22T12:21:54;97281.97;;;19.60;42.58
50057;BME280;36875;49.468;11.200;2023-04-22T12:24:26;97277.16;;;19.57;42.62
50057;BME280;36875;49.468;11.200;2023-04-22T12:26:53;97281.31;;;19.63;42.82
50057;BME280;36875;49.468;11.200;2023-04-22T12:29:26;97284.06;;;19.63;42.64
50057;BME280;36875;49.468;11.200;2023-04-22T12:31:51;97286.44;;;19.64;42.74
50057;BME280;36875;49.468;11.200;2023-04-22T12:34:17;97282.13;;;19.63;42.89
50057;BME280;36875;49.468;11.200;2023-04-22T12:36:42;97279.38;;;19.63;42.61
50057;BME280;36875;49.468;11.200;2023-04-22T12:39:08;97272.78;;;19.64;42.80
50057;BME280;36875;49.468;11.200;2023-04-22T12:41:35;97269.25;;;19.64;42.83
50057;BME280;36875;49.468;11.200;2023-04-22T12:44:01;97271.03;;;19.60;42.38
50057;BME280;36875;49.468;11.200;2023-04-22T12:46:27;97276.66;;;19.63;42.30
50057;BME280;36875;49.468;11.200;2023-04-22T12:48:52;97268.78;;;19.62;42.63